Time;durP1;ratioP1;P1;durP2;ratioP2;P2;SDS_P1;SDS_P2;PMS_P1;PMS_P2;Temp;Humidity;BMP_temperature;BMP_pressure;BME280_temperature;BME280_humidity;BME280_pressure;Samples;Min_cycle;Max_cycle;Signal;HPM_P1;HPM_P2
2021/03/24 08:49:00;;;;;;;38.08;25.60;;;154.50;2252.80;;;;;;5778772;23;20039;-81
2021/03/24 09:43:56;;;;;;;39.55;30.25;;;179.40;2048.00;;;;;;4976933;28;20051;-78
2021/03/24 09:47:21;;;;;;;34.67;25.17;;;179.80;2099.20;;;;;;4979034;28;20063;-80
2021/03/24 09:50:24;;;;;;;127.20;79.28;;;179.80;2252.80;;;;;;4955147;28;20618;-81
2021/03/24 09:53:17;;;;;;;76.18;42.30;;;179.80;2176.00;;;;;;4949926;28;20039;-80
2021/03/24 09:56:06;;;;;;;44.13;30.10;;;179.70;1971.20;;;;;;4955624;29;20027;-82
2021/03/24 10:29:06;;;;;;;35.97;25.25;;;179.90;2252.80;;;;;;4956595;28;20116;-78
2021/03/24 13:32:41;;;;;;;21.52;13.35;;;230.60;1561.60;;;;;;4977537;28;20125;-88
2021/03/24 13:36:21;;;;;;;34.15;19.23;;;205.70;1638.40;;;;;;4917498;29;20052;-87
2021/03/24 13:39:46;;;;;;;30.77;17.38;;;205.70;1740.80;;;;;;4824818;29;20122;-88
2021/03/24 13:46:54;;;;;;;26.48;17.02;;;230.60;1587.20;;;;;;4825305;29;20038;-87
2021/03/24 13:50:26;;;;;;;40.45;25.50;;;205.60;1587.20;;;;;;4829588;29;20030;-86
2021/03/24 13:53:58;;;;;;;41.92;26.92;;;205.20;1612.80;;;;;;4816055;29;20046;-87
2021/03/24 15:11:09;;;;;;;16.80;11.45;;;180.00;1689.60;;;;;;4928463;26;20054;-81
2021/03/24 15:13:47;;;;;;;16.13;10.45;;;180.00;1638.40;;;;;;4957277;28;20042;-79
2021/03/24 15:16:21;;;;;;;10.98;7.32;;;179.70;1612.80;;;;;;4977061;28;20103;-79
2021/03/24 15:25:56;;;;;;;25.23;14.88;;;179.70;1689.60;;;;;;5465685;23;20059;-78
2021/03/24 18:13:35;;;;;;;270.15;167.10;;;128.90;2124.80;;;;;;5576574;23;20043;-79
2021/03/24 18:22:39;;;;;;;177.15;108.50;;;128.70;2227.20;;;;;;5080611;23;20062;-77
2021/03/24 18:25:23;;;;;;;159.60;104.30;;;128.40;2252.80;;;;;;4968886;28;20043;-78
2021/03/24 18:28:24;;;;;;;207.25;131.10;;;128.50;2252.80;;;;;;4983108;28;20027;-79
2021/03/24 18:31:18;;;;;;;181.00;112.40;;;128.40;2252.80;;;;;;4940549;29;20047;-77
2021/03/24 18:33:51;;;;;;;205.80;139.32;;;128.30;2252.80;;;;;;4956513;29;20051;-79
2021/03/24 18:36:52;;;;;;;214.07;143.20;;;128.30;2252.80;;;;;;4957134;29;20035;-79
2021/03/24 18:40:14;;;;;;;185.77;125.00;;;128.30;2252.80;;;;;;4966969;29;20074;-80
2021/03/24 18:43:28;;;;;;;176.43;111.38;;;128.30;2252.80;;;;;;4959976;29;20019;-79
2021/03/24 18:50:06;;;;;;;96.25;63.70;;;128.10;2227.20;;;;;;4956239;29;20042;-79
2021/03/24 18:52:55;;;;;;;60.80;39.65;;;103.20;2227.20;;;;;;4972453;29;20075;-79
2021/03/24 18:55:34;;;;;;;73.90;48.80;;;103.00;2227.20;;;;;;4938812;29;20027;-79
2021/03/24 18:58:21;;;;;;;94.97;60.20;;;103.00;2227.20;;;;;;4956291;28;20099;-80
2021/03/24 19:01:00;;;;;;;129.27;74.18;;;102.90;2227.20;;;;;;4958920;28;20035;-79
2021/03/24 19:03:30;;;;;;;145.95;92.32;;;103.00;2227.20;;;;;;4951557;29;20027;-80
2021/03/24 19:06:12;;;;;;;167.63;102.70;;;103.00;2227.20;;;;;;5080459;23;20046;-79
2021/03/24 19:08:40;;;;;;;181.05;114.43;;;102.90;2227.20;;;;;;4955092;29;20121;-80
2021/03/24 19:11:40;;;;;;;256.20;137.55;;;102.90;2227.20;;;;;;4939378;29;20051;-79
2021/03/24 19:14:30;;;;;;;182.00;111.55;;;102.90;2227.20;;;;;;4969741;28;20141;-79
2021/03/24 19:16:58;;;;;;;139.15;84.70;;;102.70;2227.20;;;;;;4961703;29;20031;-80
2021/03/24 19:19:28;;;;;;;148.80;97.78;;;102.80;2227.20;;;;;;4968867;29;20035;-79
2021/03/24 19:21:59;;;;;;;186.68;111.90;;;102.60;2227.20;;;;;;4938508;29;20027;-79
2021/03/24 19:24:39;;;;;;;196.50;114.53;;;102.60;2227.20;;;;;;4956740;29;20115;-80
2021/03/24 19:27:24;;;;;;;149.35;93.25;;;102.70;2227.20;;;;;;4939039;29;20135;-79
2021/03/24 19:30:26;;;;;;;170.95;104.05;;;102.70;2227.20;;;;;;4957566;29;20111;-78
2021/03/24 19:33:10;;;;;;;327.98;165.95;;;102.80;2227.20;;;;;;4950220;28;20054;-82
2021/03/24 19:36:39;;;;;;;177.85;100.63;;;102.70;2227.20;;;;;;4977585;28;20039;-81
2021/03/24 19:39:53;;;;;;;147.50;86.07;;;102.80;2227.20;;;;;;4919428;29;20024;-82
2021/03/24 19:42:57;;;;;;;127.43;74.60;;;102.70;2227.20;;;;;;4921639;29;20109;-80
2021/03/24 19:45:38;;;;;;;281.92;156.05;;;102.80;2227.20;;;;;;4920853;29;20020;-79
2021/03/24 19:48:44;;;;;;;345.70;201.57;;;102.80;2227.20;;;;;;4923428;29;20096;-81
2021/03/24 19:51:15;;;;;;;125.15;74.28;;;102.80;2227.20;;;;;;4935094;29;20040;-82
2021/03/24 19:54:26;;;;;;;160.68;102.57;;;102.70;2227.20;;;;;;4932592;29;20060;-81
2021/03/24 19:57:08;;;;;;;249.38;135.93;;;102.80;2227.20;;;;;;4923346;29;20092;-79
2021/03/24 19:59:48;;;;;;;369.00;194.48;;;102.80;2227.20;;;;;;4887233;29;20025;-80
2021/03/24 20:02:21;;;;;;;415.33;232.05;;;102.90;2227.20;;;;;;4902563;29;20020;-79
2021/03/24 20:05:08;;;;;;;367.45;212.48;;;102.70;2227.20;;;;;;4896478;29;20021;-80
2021/03/24 20:08:09;;;;;;;369.95;206.38;;;102.70;2227.20;;;;;;4873122;29;20051;-80
2021/03/24 20:11:04;;;;;;;250.50;143.07;;;102.70;2227.20;;;;;;4912782;29;20089;-80
2021/03/24 20:13:49;;;;;;;215.70;123.55;;;102.80;2227.20;;;;;;4908272;29;20055;-78
2021/03/24 20:16:21;;;;;;;311.60;175.68;;;102.90;2227.20;;;;;;4904794;29;20097;-80
2021/03/24 20:18:58;;;;;;;296.25;176.30;;;103.00;2227.20;;;;;;4898756;29;20055;-79
2021/03/24 20:21:44;;;;;;;297.73;180.52;;;103.00;2227.20;;;;;;4918674;29;20028;-79
2021/03/24 20:24:20;;;;;;;281.38;171.45;;;103.00;2227.20;;;;;;4915275;29;20028;-80
2021/03/24 20:26:47;;;;;;;228.00;144.52;;;102.90;2227.20;;;;;;4891910;29;20038;-81
2021/03/24 20:29:23;;;;;;;259.55;166.77;;;103.00;2227.20;;;;;;4939231;29;20103;-81
2021/03/24 20:35:29;;;;;;;270.67;173.68;;;103.00;2227.20;;;;;;5229179;23;20063;-80
2021/03/24 20:41:02;;;;;;;295.80;181.02;;;102.50;2227.20;;;;;;5453868;23;19941;-80
2021/03/24 20:43:47;;;;;;;284.50;179.05;;;102.90;2227.20;;;;;;4946013;29;20074;-77
2021/03/24 21:01:13;;;;;;;323.95;211.18;;;102.50;2227.20;;;;;;4865733;29;20041;-82
2021/03/24 21:05:11;;;;;;;237.73;149.02;;;102.60;2227.20;;;;;;4845505;29;20030;-81
2021/03/24 21:08:51;;;;;;;175.50;108.97;;;102.60;2227.20;;;;;;4823408;29;20027;-81
2021/03/24 21:16:02;;;;;;;92.07;58.08;;;102.60;2227.20;;;;;;4800241;29;20095;-82
2021/03/24 21:19:07;;;;;;;70.25;44.80;;;102.80;2227.20;;;;;;4806168;29;20038;-80
2021/03/24 21:22:13;;;;;;;83.93;54.10;;;102.90;2227.20;;;;;;4780395;30;20036;-80
2021/03/24 21:25:36;;;;;;;181.55;104.07;;;102.90;2227.20;;;;;;4779419;30;20036;-81
2021/03/24 21:28:29;;;;;;;192.57;117.13;;;102.80;2227.20;;;;;;4782320;29;20043;-81
2021/03/24 21:34:35;;;;;;;295.80;174.32;;;102.50;2227.20;;;;;;4864666;29;19946;-79
2021/03/24 21:41:07;;;;;;;218.23;132.93;;;77.70;2227.20;;;;;;4917454;29;20037;-81
2021/03/24 21:48:38;;;;;;;151.07;82.30;;;102.50;2227.20;;;;;;4886676;29;20098;-80
2021/03/24 21:54:05;;;;;;;63.38;36.78;;;77.50;2227.20;;;;;;6004261;23;20885;-79
2021/03/24 22:03:32;;;;;;;48.63;28.98;;;102.70;2227.20;;;;;;4962827;29;20042;-76
2021/03/24 22:05:58;;;;;;;49.83;29.98;;;102.70;2227.20;;;;;;4942448;29;20042;-76
2021/03/24 22:08:24;;;;;;;47.97;31.77;;;102.80;2227.20;;;;;;4960086;29;20023;-76
2021/03/24 22:10:50;;;;;;;42.97;25.67;;;102.80;2227.20;;;;;;4942817;29;20051;-77
2021/03/24 22:13:28;;;;;;;53.72;29.50;;;102.80;2227.20;;;;;;4941687;29;20039;-77
2021/03/24 22:16:07;;;;;;;51.33;29.67;;;102.80;2227.20;;;;;;4941909;29;20027;-77
2021/03/24 22:18:38;;;;;;;67.88;40.10;;;102.80;2227.20;;;;;;4943012;29;20031;-78
2021/03/24 22:21:07;;;;;;;76.93;45.67;;;102.70;2227.20;;;;;;4958898;29;20095;-78
2021/03/24 22:23:34;;;;;;;77.07;41.13;;;102.70;2227.20;;;;;;4940922;29;20378;-78
2021/03/24 22:26:00;;;;;;;71.13;40.30;;;102.80;2227.20;;;;;;4941582;29;20069;-76
2021/03/24 22:28:50;;;;;;;100.70;55.20;;;102.80;2227.20;;;;;;4947771;29;20038;-81
2021/03/24 22:46:37;;;;;;;201.77;108.72;;;102.50;2227.20;;;;;;4959467;28;20088;-81
2021/03/24 22:49:23;;;;;;;94.00;56.38;;;77.70;2227.20;;;;;;4953963;29;20096;-81
2021/03/24 22:52:16;;;;;;;136.10;78.00;;;77.70;2227.20;;;;;;4945320;29;20050;-79
2021/03/24 22:55:38;;;;;;;126.22;74.40;;;77.60;2227.20;;;;;;4956760;29;20052;-82
2021/03/24 22:59:04;;;;;;;80.85;49.55;;;77.50;2227.20;;;;;;4902230;29;20092;-81
2021/03/24 23:02:21;;;;;;;172.45;95.65;;;77.40;2227.20;;;;;;4901417;29;20085;-81
2021/03/24 23:04:59;;;;;;;116.43;66.53;;;77.40;2227.20;;;;;;4895966;29;20105;-81
2021/03/24 23:11:11;;;;;;;115.10;67.32;;;77.40;2227.20;;;;;;4857474;29;20045;-81
2021/03/24 23:14:35;;;;;;;93.18;52.33;;;77.20;2227.20;;;;;;4853564;29;20049;-80
2021/03/24 23:17:41;;;;;;;74.00;42.42;;;77.20;2227.20;;;;;;4843113;29;20030;-81
2021/03/24 23:20:34;;;;;;;70.90;39.15;;;77.10;2227.20;;;;;;4861991;29;20041;-82
2021/03/24 23:23:49;;;;;;;52.05;34.03;;;77.10;2227.20;;;;;;4862367;29;20013;-82
2021/03/24 23:27:10;;;;;;;151.27;66.82;;;77.20;2227.20;;;;;;4845401;29;20022;-82
2021/03/24 23:30:29;;;;;;;92.95;51.40;;;77.10;2227.20;;;;;;4865749;29;20076;-79
2021/03/24 23:34:12;;;;;;;152.10;76.03;;;77.10;2227.20;;;;;;4880188;29;20028;-82
2021/03/24 23:40:53;;;;;;;142.57;64.75;;;77.10;2227.20;;;;;;4845737;29;20118;-81
2021/03/24 23:54:39;;;;;;;134.45;70.13;;;52.10;2227.20;;;;;;4866483;29;20032;-80
